sensor_id;sensor_type;location;lat;lon;timestamp;P1;durP1;ratioP1;P2;durP2;ratioP2
71902;SDS011;59778;50.310;18.780;2022-11-24T00:08:33;51.03;;;17.97;;
71902;SDS011;59778;50.310;18.780;2022-11-24T00:23:54;59.70;;;21.27;;
71902;SDS011;59778;50.310;18.780;2022-11-24T00:39:16;48.60;;;16.97;;
71902;SDS011;59778;50.310;18.780;2022-11-24T00:54:37;51.73;;;18.20;;
71902;SDS011;59778;50.310;18.780;2022-11-24T01:09:58;53.47;;;18.13;;
71902;SDS011;59778;50.310;18.780;2022-11-24T01:25:19;52.30;;;18.53;;
71902;SDS011;59778;50.310;18.780;2022-11-24T01:40:40;59.97;;;19.93;;
71902;SDS011;59778;50.310;18.780;2022-11-24T01:56:02;61.50;;;20.33;;
71902;SDS011;59778;50.310;18.780;2022-11-24T02:11:25;61.73;;;20.90;;
71902;SDS011;59778;50.310;18.780;2022-11-24T02:26:50;57.37;;;19.80;;
71902;SDS011;59778;50.310;18.780;2022-11-24T02:42:14;75.13;;;23.27;;
71902;SDS011;59778;50.310;18.780;2022-11-24T02:57:35;52.17;;;17.20;;
71902;SDS011;59778;50.310;18.780;2022-11-24T03:12:56;50.67;;;15.67;;
71902;SDS011;59778;50.310;18.780;2022-11-24T03:28:18;44.43;;;15.40;;
71902;SDS011;59778;50.310;18.780;2022-11-24T03:43:39;57.20;;;18.53;;
71902;SDS011;59778;50.310;18.780;2022-11-24T03:59:00;42.43;;;14.83;;
71902;SDS011;59778;50.310;18.780;2022-11-24T04:14:22;42.97;;;15.03;;
71902;SDS011;59778;50.310;18.780;2022-11-24T04:29:43;60.67;;;18.00;;
71902;SDS011;59778;50.310;18.780;2022-11-24T04:45:04;60.90;;;18.50;;
71902;SDS011;59778;50.310;18.780;2022-11-24T05:00:26;56.70;;;18.77;;
71902;SDS011;59778;50.310;18.780;2022-11-24T05:15:48;59.30;;;19.87;;
71902;SDS011;59778;50.310;18.780;2022-11-24T05:31:09;57.77;;;19.20;;
71902;SDS011;59778;50.310;18.780;2022-11-24T05:46:30;58.60;;;19.63;;
71902;SDS011;59778;50.310;18.780;2022-11-24T06:01:51;63.27;;;19.53;;
71902;SDS011;59778;50.310;18.780;2022-11-24T06:17:14;58.83;;;21.20;;
71902;SDS011;59778;50.310;18.780;2022-11-24T06:32:35;54.93;;;20.23;;
71902;SDS011;59778;50.310;18.780;2022-11-24T06:47:56;53.60;;;19.90;;
71902;SDS011;59778;50.310;18.780;2022-11-24T07:03:17;56.07;;;18.27;;
71902;SDS011;59778;50.310;18.780;2022-11-24T07:18:39;62.73;;;19.87;;
71902;SDS011;59778;50.310;18.780;2022-11-24T07:34:01;69.93;;;21.40;;
71902;SDS011;59778;50.310;18.780;2022-11-24T07:49:22;68.83;;;19.87;;
71902;SDS011;59778;50.310;18.780;2022-11-24T08:04:43;71.33;;;23.70;;
71902;SDS011;59778;50.310;18.780;2022-11-24T08:20:04;73.53;;;21.97;;
71902;SDS011;59778;50.310;18.780;2022-11-24T08:35:26;87.63;;;28.70;;
71902;SDS011;59778;50.310;18.780;2022-11-24T08:50:48;98.40;;;28.33;;
71902;SDS011;59778;50.310;18.780;2022-11-24T09:06:09;78.03;;;28.60;;
71902;SDS011;59778;50.310;18.780;2022-11-24T09:21:32;77.50;;;26.40;;
71902;SDS011;59778;50.310;18.780;2022-11-24T09:36:59;80.23;;;25.50;;
71902;SDS011;59778;50.310;18.780;2022-11-24T09:52:22;63.80;;;20.23;;
71902;SDS011;59778;50.310;18.780;2022-11-24T10:08:06;85.00;;;25.00;;
71902;SDS011;59778;50.310;18.780;2022-11-24T10:23:48;74.67;;;26.23;;
71902;SDS011;59778;50.310;18.780;2022-11-24T10:39:22;84.60;;;24.67;;
71902;SDS011;59778;50.310;18.780;2022-11-24T10:55:00;78.17;;;25.63;;
71902;SDS011;59778;50.310;18.780;2022-11-24T11:10:24;70.90;;;24.20;;
71902;SDS011;59778;50.310;18.780;2022-11-24T11:25:45;62.90;;;21.13;;
71902;SDS011;59778;50.310;18.780;2022-11-24T11:41:08;54.70;;;18.97;;
71902;SDS011;59778;50.310;18.780;2022-11-24T11:56:42;44.83;;;18.23;;
71902;SDS011;59778;50.310;18.780;2022-11-24T12:43:35;34.37;;;15.03;;
71902;SDS011;59778;50.310;18.780;2022-11-24T13:14:35;73.40;;;25.43;;
71902;SDS011;59778;50.310;18.780;2022-11-24T13:29:59;53.47;;;20.50;;
71902;SDS011;59778;50.310;18.780;2022-11-24T14:01:09;83.63;;;31.53;;
71902;SDS011;59778;50.310;18.780;2022-11-24T14:16:33;93.13;;;31.30;;
71902;SDS011;59778;50.310;18.780;2022-11-24T14:31:55;64.43;;;23.60;;
71902;SDS011;59778;50.310;18.780;2022-11-24T15:19:02;68.60;;;22.70;;
71902;SDS011;59778;50.310;18.780;2022-11-24T15:34:17;63.37;;;23.07;;
71902;SDS011;59778;50.310;18.780;2022-11-24T15:49:38;83.10;;;28.17;;
71902;SDS011;59778;50.310;18.780;2022-11-24T16:04:59;96.80;;;30.17;;
71902;SDS011;59778;50.310;18.780;2022-11-24T17:26:48;97.40;;;31.95;;
71902;SDS011;59778;50.310;18.780;2022-11-24T17:42:10;95.53;;;29.40;;
71902;SDS011;59778;50.310;18.780;2022-11-24T17:57:31;96.37;;;32.87;;
71902;SDS011;59778;50.310;18.780;2022-11-24T18:12:52;110.37;;;37.10;;
71902;SDS011;59778;50.310;18.780;2022-11-24T18:28:14;103.73;;;34.77;;
71902;SDS011;59778;50.310;18.780;2022-11-24T18:43:35;92.57;;;32.93;;
71902;SDS011;59778;50.310;18.780;2022-11-24T18:58:58;99.00;;;35.70;;
71902;SDS011;59778;50.310;18.780;2022-11-24T19:14:19;128.30;;;46.67;;
71902;SDS011;59778;50.310;18.780;2022-11-24T19:29:40;112.90;;;34.03;;
71902;SDS011;59778;50.310;18.780;2022-11-24T19:45:02;108.17;;;35.57;;
71902;SDS011;59778;50.310;18.780;2022-11-24T20:00:24;131.03;;;41.53;;
71902;SDS011;59778;50.310;18.780;2022-11-24T20:15:45;134.30;;;44.83;;
71902;SDS011;59778;50.310;18.780;2022-11-24T20:31:10;115.13;;;41.13;;
71902;SDS011;59778;50.310;18.780;2022-11-24T20:46:34;119.53;;;40.57;;
71902;SDS011;59778;50.310;18.780;2022-11-24T21:01:57;121.37;;;41.53;;
71902;SDS011;59778;50.310;18.780;2022-11-24T21:17:19;143.70;;;50.67;;
71902;SDS011;59778;50.310;18.780;2022-11-24T21:32:40;164.43;;;51.30;;
71902;SDS011;59778;50.310;18.780;2022-11-24T21:48:01;156.87;;;53.37;;
71902;SDS011;59778;50.310;18.780;2022-11-24T22:03:22;145.73;;;50.17;;
71902;SDS011;59778;50.310;18.780;2022-11-24T22:18:44;191.83;;;61.03;;
71902;SDS011;59778;50.310;18.780;2022-11-24T22:34:05;218.87;;;73.37;;
71902;SDS011;59778;50.310;18.780;2022-11-24T22:49:27;211.77;;;74.53;;
71902;SDS011;59778;50.310;18.780;2022-11-24T23:04:49;176.87;;;61.07;;
71902;SDS011;59778;50.310;18.780;2022-11-24T23:20:10;169.77;;;63.80;;
71902;SDS011;59778;50.310;18.780;2022-11-24T23:35:32;196.20;;;70.17;;
71902;SDS011;59778;50.310;18.780;2022-11-24T23:50:53;206.57;;;74.70;;
